Aviation Digital Data Service (ADDS)

Output produced by METARs form (0916 UTC 19 April 2019)
found at http://www.aviationweather.gov/metar/data/
 
METAR text: KLAN 190853Z 34009KT 10SM -RA OVC012 04/03 A2969 RMK AO2 RAB53 SLP057 P0000 60000 T00440028 53005
Conditions at: KLAN (LANSING , MI, US) observed 0853 UTC 19 April 2019
Temperature: 4.4°C (40°F)
Dewpoint: 2.8°C (37°F) [RH = 89%]
Pressure (altimeter): 29.69 inches Hg (1005.5 mb)
[Sea-level pressure: 1005.7 mb]
Winds: from the NNW (340 degrees) at 10 MPH (9 knots; 4.6 m/s)
Visibility: 10 or more miles (16+ km)
Ceiling: 1200 feet AGL
Clouds: overcast cloud deck at 1200 feet AGL
Weather: -RA  (light rain)

METAR text: KLAN 190753Z 34009KT 10SM OVC012 05/03 A2967 RMK AO2 SLP049 T00500033
Conditions at: KLAN (LANSING , MI, US) observed 0753 UTC 19 April 2019
Temperature: 5.0°C (41°F)
Dewpoint: 3.3°C (38°F) [RH = 89%]
Pressure (altimeter): 29.67 inches Hg (1004.8 mb)
[Sea-level pressure: 1004.9 mb]
Winds: from the NNW (340 degrees) at 10 MPH (9 knots; 4.6 m/s)
Visibility: 10 or more miles (16+ km)
Ceiling: 1200 feet AGL
Clouds: overcast cloud deck at 1200 feet AGL
Weather: no significant weather observed at this time

METAR text: KLAN 190653Z 34008KT 10SM OVC012 05/03 A2967 RMK AO2 SLP050 T00500033
Conditions at: KLAN (LANSING , MI, US) observed 0653 UTC 19 April 2019
Temperature: 5.0°C (41°F)
Dewpoint: 3.3°C (38°F) [RH = 89%]
Pressure (altimeter): 29.67 inches Hg (1004.8 mb)
[Sea-level pressure: 1005.0 mb]
Winds: from the NNW (340 degrees) at 9 MPH (8 knots; 4.1 m/s)
Visibility: 10 or more miles (16+ km)
Ceiling: 1200 feet AGL
Clouds: overcast cloud deck at 1200 feet AGL
Weather: no significant weather observed at this time

METAR text: KLAN 190553Z 34007KT 10SM OVC013 05/03 A2968 RMK AO2 SLP051 T00500033 10094 20050 58010
Conditions at: KLAN (LANSING , MI, US) observed 0553 UTC 19 April 2019
Temperature: 5.0°C (41°F)
Dewpoint: 3.3°C (38°F) [RH = 89%]
Pressure (altimeter): 29.68 inches Hg (1005.2 mb)
[Sea-level pressure: 1005.1 mb]
Winds: from the NNW (340 degrees) at 8 MPH (7 knots; 3.6 m/s)
Visibility: 10 or more miles (16+ km)
Ceiling: 1300 feet AGL
Clouds: overcast cloud deck at 1300 feet AGL
Weather: no significant weather observed at this time

METAR text: KLAN 190453Z 32006KT 10SM OVC013 05/03 A2970 RMK AO2 SLP058 T00500033 401890050
Conditions at: KLAN (LANSING , MI, US) observed 0453 UTC 19 April 2019
Temperature: 5.0°C (41°F)
Dewpoint: 3.3°C (38°F) [RH = 89%]
Pressure (altimeter): 29.70 inches Hg (1005.8 mb)
[Sea-level pressure: 1005.8 mb]
Winds: from the NW (320 degrees) at 7 MPH (6 knots; 3.1 m/s)
Visibility: 10 or more miles (16+ km)
Ceiling: 1300 feet AGL
Clouds: overcast cloud deck at 1300 feet AGL
Weather: no significant weather observed at this time

METAR text: KLAN 190353Z 32008KT 10SM OVC013 05/03 A2970 RMK AO2 SLP060 T00500033
Conditions at: KLAN (LANSING , MI, US) observed 0353 UTC 19 April 2019
Temperature: 5.0°C (41°F)
Dewpoint: 3.3°C (38°F) [RH = 89%]
Pressure (altimeter): 29.70 inches Hg (1005.8 mb)
[Sea-level pressure: 1006.0 mb]
Winds: from the NW (320 degrees) at 9 MPH (8 knots; 4.1 m/s)
Visibility: 10 or more miles (16+ km)
Ceiling: 1300 feet AGL
Clouds: overcast cloud deck at 1300 feet AGL
Weather: no significant weather observed at this time

METAR text: KLAN 190253Z 31008KT 10SM OVC012 06/04 A2971 RMK AO2 SLP060 T00560039 51015
Conditions at: KLAN (LANSING , MI, US) observed 0253 UTC 19 April 2019
Temperature: 5.6°C (42°F)
Dewpoint: 3.9°C (39°F) [RH = 89%]
Pressure (altimeter): 29.71 inches Hg (1006.2 mb)
[Sea-level pressure: 1006.0 mb]
Winds: from the NW (310 degrees) at 9 MPH (8 knots; 4.1 m/s)
Visibility: 10 or more miles (16+ km)
Ceiling: 1200 feet AGL
Clouds: overcast cloud deck at 1200 feet AGL
Weather: no significant weather observed at this time

METAR text: KLAN 190205Z 30009KT 10SM OVC011 06/04 A2970 RMK AO2 T00610044
Conditions at: KLAN (LANSING , MI, US) observed 0205 UTC 19 April 2019
Temperature: 6.1°C (43°F)
Dewpoint: 4.4°C (40°F) [RH = 89%]
Pressure (altimeter): 29.70 inches Hg (1005.8 mb)
Winds: from the WNW (300 degrees) at 10 MPH (9 knots; 4.6 m/s)
Visibility: 10 or more miles (16+ km)
Ceiling: 1100 feet AGL
Clouds: overcast cloud deck at 1100 feet AGL
Weather: no significant weather observed at this time

METAR text: KLAN 190153Z 30012KT 10SM OVC009 06/04 A2970 RMK AO2 CIG 008V012 SLP060 T00610044
Conditions at: KLAN (LANSING , MI, US) observed 0153 UTC 19 April 2019
Temperature: 6.1°C (43°F)
Dewpoint: 4.4°C (40°F) [RH = 89%]
Pressure (altimeter): 29.70 inches Hg (1005.8 mb)
[Sea-level pressure: 1006.0 mb]
Winds: from the WNW (300 degrees) at 14 MPH (12 knots; 6.2 m/s)
Visibility: 10 or more miles (16+ km)
Ceiling: 900 feet AGL
Clouds: overcast cloud deck at 900 feet AGL
Weather: no significant weather observed at this time

METAR text: KLAN 190117Z 29014KT 10SM OVC008 07/06 A2969 RMK AO2 CIG 008V013 T00720061
Conditions at: KLAN (LANSING , MI, US) observed 0117 UTC 19 April 2019
Temperature: 7.2°C (45°F)
Dewpoint: 6.1°C (43°F) [RH = 93%]
Pressure (altimeter): 29.69 inches Hg (1005.5 mb)
Winds: from the WNW (290 degrees) at 16 MPH (14 knots; 7.2 m/s)
Visibility: 10 or more miles (16+ km)
Ceiling: 800 feet AGL
Clouds: overcast cloud deck at 800 feet AGL
Weather: no significant weather observed at this time

METAR text: KLAN 190053Z 29009KT 10SM BKN014 OVC019 08/07 A2967 RMK AO2 SLP048 T00830067
Conditions at: KLAN (LANSING , MI, US) observed 0053 UTC 19 April 2019
Temperature: 8.3°C (47°F)
Dewpoint: 6.7°C (44°F) [RH = 90%]
Pressure (altimeter): 29.67 inches Hg (1004.8 mb)
[Sea-level pressure: 1004.8 mb]
Winds: from the WNW (290 degrees) at 10 MPH (9 knots; 4.6 m/s)
Visibility: 10 or more miles (16+ km)
Ceiling: 1400 feet AGL
Clouds: broken clouds at 1400 feet AGL
overcast cloud deck at 1900 feet AGL
Weather: no significant weather observed at this time

METAR text: KLAN 190044Z 29008KT 10SM BKN016 08/07 A2966 RMK AO2 T00830067
Conditions at: KLAN (LANSING , MI, US) observed 0044 UTC 19 April 2019
Temperature: 8.3°C (47°F)
Dewpoint: 6.7°C (44°F) [RH = 90%]
Pressure (altimeter): 29.66 inches Hg (1004.5 mb)
Winds: from the WNW (290 degrees) at 9 MPH (8 knots; 4.1 m/s)
Visibility: 10 or more miles (16+ km)
Ceiling: 1600 feet AGL
Clouds: broken clouds at 1600 feet AGL
Weather: no significant weather observed at this time

METAR text: KLAN 190011Z 28011KT 10SM FEW013 SCT019 BKN120 09/07 A2966 RMK AO2 T00890067
Conditions at: KLAN (LANSING , MI, US) observed 0011 UTC 19 April 2019
Temperature: 8.9°C (48°F)
Dewpoint: 6.7°C (44°F) [RH = 86%]
Pressure (altimeter): 29.66 inches Hg (1004.5 mb)
Winds: from the W (280 degrees) at 13 MPH (11 knots; 5.7 m/s)
Visibility: 10 or more miles (16+ km)
Ceiling: 12000 feet AGL
Clouds: few clouds at 1300 feet AGL
scattered clouds at 1900 feet AGL
broken clouds at 12000 feet AGL
Weather: no significant weather observed at this time

METAR text: KLAN 190004Z 28012KT 10SM SCT013 BKN019 OVC110 09/07 A2966 RMK AO2 T00890067
Conditions at: KLAN (LANSING , MI, US) observed 0004 UTC 19 April 2019
Temperature: 8.9°C (48°F)
Dewpoint: 6.7°C (44°F) [RH = 86%]
Pressure (altimeter): 29.66 inches Hg (1004.5 mb)
Winds: from the W (280 degrees) at 14 MPH (12 knots; 6.2 m/s)
Visibility: 10 or more miles (16+ km)
Ceiling: 1900 feet AGL
Clouds: scattered clouds at 1300 feet AGL
broken clouds at 1900 feet AGL
overcast cloud deck at 11000 feet AGL
Weather: no significant weather observed at this time

METAR text: KLAN 182353Z 29015G22KT 10SM BKN014 OVC019 09/07 A2966 RMK AO2 SLP044 60021 T00940072 10172 20094 53020
Conditions at: KLAN (LANSING , MI, US) observed 2353 UTC 18 April 2019
Temperature: 9.4°C (49°F)
Dewpoint: 7.2°C (45°F) [RH = 86%]
Pressure (altimeter): 29.66 inches Hg (1004.5 mb)
[Sea-level pressure: 1004.4 mb]
Winds: from the WNW (290 degrees) at 17 MPH (15 knots; 7.7 m/s)
gusting to 25 MPH (22 knots; 11.3 m/s)
Visibility: 10 or more miles (16+ km)
Ceiling: 1400 feet AGL
Clouds: broken clouds at 1400 feet AGL
overcast cloud deck at 1900 feet AGL
Weather: no significant weather observed at this time

METAR text: KLAN 182331Z 28012KT 10SM OVC015 10/08 A2964 RMK AO2 T01000078
Conditions at: KLAN (LANSING , MI, US) observed 2331 UTC 18 April 2019
Temperature: 10.0°C (50°F)
Dewpoint: 7.8°C (46°F) [RH = 86%]
Pressure (altimeter): 29.64 inches Hg (1003.8 mb)
Winds: from the W (280 degrees) at 14 MPH (12 knots; 6.2 m/s)
Visibility: 10 or more miles (16+ km)
Ceiling: 1500 feet AGL
Clouds: overcast cloud deck at 1500 feet AGL
Weather: no significant weather observed at this time

METAR text: KLAN 182303Z 28010KT 10SM BKN013 BKN018 OVC055 11/09 A2963 RMK AO2 T01060089
Conditions at: KLAN (LANSING , MI, US) observed 2303 UTC 18 April 2019
Temperature: 10.6°C (51°F)
Dewpoint: 8.9°C (48°F) [RH = 89%]
Pressure (altimeter): 29.63 inches Hg (1003.5 mb)
Winds: from the W (280 degrees) at 12 MPH (10 knots; 5.1 m/s)
Visibility: 10 or more miles (16+ km)
Ceiling: 1300 feet AGL
Clouds: broken clouds at 1300 feet AGL
broken clouds at 1800 feet AGL
overcast cloud deck at 5500 feet AGL
Weather: no significant weather observed at this time

METAR text: KLAN 182253Z 26013KT 10SM FEW011 BKN016 OVC080 11/09 A2963 RMK AO2 SLP032 T01110089
Conditions at: KLAN (LANSING , MI, US) observed 2253 UTC 18 April 2019
Temperature: 11.1°C (52°F)
Dewpoint: 8.9°C (48°F) [RH = 86%]
Pressure (altimeter): 29.63 inches Hg (1003.5 mb)
[Sea-level pressure: 1003.2 mb]
Winds: from the W (260 degrees) at 15 MPH (13 knots; 6.7 m/s)
Visibility: 10 or more miles (16+ km)
Ceiling: 1600 feet AGL
Clouds: few clouds at 1100 feet AGL
broken clouds at 1600 feet AGL
overcast cloud deck at 8000 feet AGL
Weather: no significant weather observed at this time

METAR text: KLAN 182248Z 27008KT 10SM SCT011 BKN055 OVC080 11/09 A2962 RMK AO2
Conditions at: KLAN (LANSING , MI, US) observed 2248 UTC 18 April 2019
Temperature: 11.0°C (52°F)
Dewpoint: 9.0°C (48°F) [RH = 87%]
Pressure (altimeter): 29.62 inches Hg (1003.1 mb)
Winds: from the W (270 degrees) at 9 MPH (8 knots; 4.1 m/s)
Visibility: 10 or more miles (16+ km)
Ceiling: 5500 feet AGL
Clouds: scattered clouds at 1100 feet AGL
broken clouds at 5500 feet AGL
overcast cloud deck at 8000 feet AGL
Weather: no significant weather observed at this time

METAR text: KLAN 182153Z 28010KT 10SM BKN010 OVC015 12/10 A2960 RMK AO2 CIG 008V012 SLP023 T01170100
Conditions at: KLAN (LANSING , MI, US) observed 2153 UTC 18 April 2019
Temperature: 11.7°C (53°F)
Dewpoint: 10.0°C (50°F) [RH = 89%]
Pressure (altimeter): 29.60 inches Hg (1002.5 mb)
[Sea-level pressure: 1002.3 mb]
Winds: from the W (280 degrees) at 12 MPH (10 knots; 5.1 m/s)
Visibility: 10 or more miles (16+ km)
Ceiling: 1000 feet AGL
Clouds: broken clouds at 1000 feet AGL
overcast cloud deck at 1500 feet AGL
Weather: no significant weather observed at this time

METAR text: KLAN 182053Z 29013KT 10SM SCT007 OVC011 12/11 A2958 RMK AO2 RAE51 SLP015 P0009 60021 T01170106 53019
Conditions at: KLAN (LANSING , MI, US) observed 2053 UTC 18 April 2019
Temperature: 11.7°C (53°F)
Dewpoint: 10.6°C (51°F) [RH = 93%]
Pressure (altimeter): 29.58 inches Hg (1001.8 mb)
[Sea-level pressure: 1001.5 mb]
Winds: from the WNW (290 degrees) at 15 MPH (13 knots; 6.7 m/s)
Visibility: 10 or more miles (16+ km)
Ceiling: 1100 feet AGL
Clouds: scattered clouds at 700 feet AGL
overcast cloud deck at 1100 feet AGL
Weather: no significant weather observed at this time

METAR text: KLAN 182022Z 29011KT 3SM R28L/6000VP6000FT -RA BR BKN009 BKN014 OVC033 13/12 A2956 RMK AO2 P0007 T01280117
Conditions at: KLAN (LANSING , MI, US) observed 2022 UTC 18 April 2019
Temperature: 12.8°C (55°F)
Dewpoint: 11.7°C (53°F) [RH = 93%]
Pressure (altimeter): 29.56 inches Hg (1001.1 mb)
Winds: from the WNW (290 degrees) at 13 MPH (11 knots; 5.7 m/s)
Visibility: 3 miles ( 5 km)
Ceiling: 900 feet AGL
Clouds: broken clouds at 900 feet AGL
broken clouds at 1400 feet AGL
overcast cloud deck at 3300 feet AGL
Weather: -RA BR  (light rain, mist)

METAR text: KLAN 182013Z 28009KT 2 1/2SM RA BR SCT007 BKN013 OVC033 12/12 A2955 RMK AO2 P0003 T01220117
Conditions at: KLAN (LANSING , MI, US) observed 2013 UTC 18 April 2019
Temperature: 12.2°C (54°F)
Dewpoint: 11.7°C (53°F) [RH = 97%]
Pressure (altimeter): 29.55 inches Hg (1000.8 mb)
Winds: from the W (280 degrees) at 10 MPH (9 knots; 4.6 m/s)
Visibility: 2.50 miles (4.02 km)
Ceiling: 1300 feet AGL
Clouds: scattered clouds at 700 feet AGL
broken clouds at 1300 feet AGL
overcast cloud deck at 3300 feet AGL
Weather: RA BR  (moderate rain, mist)

METAR text: KLAN 181953Z 27011KT 4SM -RA BR OVC009 13/13 A2954 RMK AO2 WSHFT 1912 RAB01 CIG 005V010 SLP002 P0010 T01330128
Conditions at: KLAN (LANSING , MI, US) observed 1953 UTC 18 April 2019
Temperature: 13.3°C (56°F)
Dewpoint: 12.8°C (55°F) [RH = 97%]
Pressure (altimeter): 29.54 inches Hg (1000.4 mb)
[Sea-level pressure: 1000.2 mb]
Winds: from the W (270 degrees) at 13 MPH (11 knots; 5.7 m/s)
Visibility: 4 miles ( 6 km)
Ceiling: 900 feet AGL
Clouds: overcast cloud deck at 900 feet AGL
Weather: -RA BR  (light rain, mist)

METAR text: KLAN 181943Z 27010KT 1 1/4SM -RA BR BKN007 OVC018 13/13 A2954 RMK AO2 WSHFT 1912 RAB01 CIG 006V013 P0009 T01330128
Conditions at: KLAN (LANSING , MI, US) observed 1943 UTC 18 April 2019
Temperature: 13.3°C (56°F)
Dewpoint: 12.8°C (55°F) [RH = 97%]
Pressure (altimeter): 29.54 inches Hg (1000.4 mb)
Winds: from the W (270 degrees) at 12 MPH (10 knots; 5.1 m/s)
Visibility: 1.25 miles (2.01 km)
Ceiling: 700 feet AGL
Clouds: broken clouds at 700 feet AGL
overcast cloud deck at 1800 feet AGL
Weather: -RA BR  (light rain, mist)

METAR text: KLAN 181937Z 28011KT 4SM -RA BR SCT007 BKN011 OVC019 13/13 A2953 RMK AO2 WSHFT 1912 RAB01 P0009 T01330128
Conditions at: KLAN (LANSING , MI, US) observed 1937 UTC 18 April 2019
Temperature: 13.3°C (56°F)
Dewpoint: 12.8°C (55°F) [RH = 97%]
Pressure (altimeter): 29.53 inches Hg (1000.1 mb)
Winds: from the W (280 degrees) at 13 MPH (11 knots; 5.7 m/s)
Visibility: 4 miles ( 6 km)
Ceiling: 1100 feet AGL
Clouds: scattered clouds at 700 feet AGL
broken clouds at 1100 feet AGL
overcast cloud deck at 1900 feet AGL
Weather: -RA BR  (light rain, mist)

METAR text: KLAN 181928Z 28016KT 10SM -RA SCT009 BKN017 OVC033 14/13 A2953 RMK AO2 WSHFT 1912 RAB01 P0009 T01390128
Conditions at: KLAN (LANSING , MI, US) observed 1928 UTC 18 April 2019
Temperature: 13.9°C (57°F)
Dewpoint: 12.8°C (55°F) [RH = 93%]
Pressure (altimeter): 29.53 inches Hg (1000.1 mb)
Winds: from the W (280 degrees) at 18 MPH (16 knots; 8.2 m/s)
Visibility: 10 or more miles (16+ km)
Ceiling: 1700 feet AGL
Clouds: scattered clouds at 900 feet AGL
broken clouds at 1700 feet AGL
overcast cloud deck at 3300 feet AGL
Weather: -RA  (light rain)

METAR text: KLAN 181923Z 28012G25KT 3SM R28L/5000VP6000FT -RA BR SCT011 BKN017 OVC033 14/13 A2953 RMK AO2 WSHFT 1905 RAB01 P0009 T01390133
Conditions at: KLAN (LANSING , MI, US) observed 1923 UTC 18 April 2019
Temperature: 13.9°C (57°F)
Dewpoint: 13.3°C (56°F) [RH = 96%]
Pressure (altimeter): 29.53 inches Hg (1000.1 mb)
Winds: from the W (280 degrees) at 14 MPH (12 knots; 6.2 m/s)
gusting to 29 MPH (25 knots; 12.9 m/s)
Visibility: 3 miles ( 5 km)
Ceiling: 1700 feet AGL
Clouds: scattered clouds at 1100 feet AGL
broken clouds at 1700 feet AGL
overcast cloud deck at 3300 feet AGL
Weather: -RA BR  (light rain, mist)

METAR text: KLAN 181919Z 29014G25KT 1 3/4SM R28L/5000VP6000FT -RA BR SCT011 BKN017 OVC023 14/14 A2953 RMK AO2 WSHFT 1905 RAB01 PRESRR P0008 T01440139
Conditions at: KLAN (LANSING , MI, US) observed 1919 UTC 18 April 2019
Temperature: 14.4°C (58°F)
Dewpoint: 13.9°C (57°F) [RH = 97%]
Pressure (altimeter): 29.53 inches Hg (1000.1 mb)
Winds: from the WNW (290 degrees) at 16 MPH (14 knots; 7.2 m/s)
gusting to 29 MPH (25 knots; 12.9 m/s)
Visibility: 1.75 miles (2.82 km)
Ceiling: 1700 feet AGL
Clouds: scattered clouds at 1100 feet AGL
broken clouds at 1700 feet AGL
overcast cloud deck at 2300 feet AGL
Weather: -RA BR  (light rain, mist)

METAR text: KLAN 181914Z 22019G25KT 2SM +RA BR FEW009 BKN025 OVC035 17/15 A2952 RMK AO2 VIS 3/4V5 RAB01 P0000 T01670150
Conditions at: KLAN (LANSING , MI, US) observed 1914 UTC 18 April 2019
Temperature: 16.7°C (62°F)
Dewpoint: 15.0°C (59°F) [RH = 90%]
Pressure (altimeter): 29.52 inches Hg (999.7 mb)
Winds: from the SW (220 degrees) at 22 MPH (19 knots; 9.8 m/s)
gusting to 29 MPH (25 knots; 12.9 m/s)
Visibility: 2.00 miles (3.22 km)
Ceiling: 2500 feet AGL
Clouds: few clouds at 900 feet AGL
broken clouds at 2500 feet AGL
overcast cloud deck at 3500 feet AGL
Weather: +RA BR  (heavy rain, mist)

METAR text: KLAN 181853Z 19014G20KT 10SM SCT017 BKN021 OVC033 17/16 A2951 RMK AO2 RAE21B24E34 SLP990 P0002 T01720156
Conditions at: KLAN (LANSING , MI, US) observed 1853 UTC 18 April 2019
Temperature: 17.2°C (63°F)
Dewpoint: 15.6°C (60°F) [RH = 90%]
Pressure (altimeter): 29.51 inches Hg (999.4 mb)
[Sea-level pressure:  999.0 mb]
Winds: from the S (190 degrees) at 16 MPH (14 knots; 7.2 m/s)
gusting to 23 MPH (20 knots; 10.3 m/s)
Visibility: 10 or more miles (16+ km)
Ceiling: 2100 feet AGL
Clouds: scattered clouds at 1700 feet AGL
broken clouds at 2100 feet AGL
overcast cloud deck at 3300 feet AGL
Weather: no significant weather observed at this time

METAR text: KLAN 181844Z 20015G25KT 8SM SCT015 BKN021 OVC029 17/16 A2951 RMK AO2 RAE21B24E34 P0002 T01720156
Conditions at: KLAN (LANSING , MI, US) observed 1844 UTC 18 April 2019
Temperature: 17.2°C (63°F)
Dewpoint: 15.6°C (60°F) [RH = 90%]
Pressure (altimeter): 29.51 inches Hg (999.4 mb)
Winds: from the SSW (200 degrees) at 17 MPH (15 knots; 7.7 m/s)
gusting to 29 MPH (25 knots; 12.9 m/s)
Visibility: 8 miles (13 km)
Ceiling: 2100 feet AGL
Clouds: scattered clouds at 1500 feet AGL
broken clouds at 2100 feet AGL
overcast cloud deck at 2900 feet AGL
Weather: no significant weather observed at this time

METAR text: KLAN 181831Z 21016G25KT 1 1/2SM -RA BR SCT015 BKN021 OVC029 17/16 A2951 RMK AO2 RAE21B24 P0002 T01720156
Conditions at: KLAN (LANSING , MI, US) observed 1831 UTC 18 April 2019
Temperature: 17.2°C (63°F)
Dewpoint: 15.6°C (60°F) [RH = 90%]
Pressure (altimeter): 29.51 inches Hg (999.4 mb)
Winds: from the SSW (210 degrees) at 18 MPH (16 knots; 8.2 m/s)
gusting to 29 MPH (25 knots; 12.9 m/s)
Visibility: 1.50 miles (2.41 km)
Ceiling: 2100 feet AGL
Clouds: scattered clouds at 1500 feet AGL
broken clouds at 2100 feet AGL
overcast cloud deck at 2900 feet AGL
Weather: -RA BR  (light rain, mist)

METAR text: KLAN 181823Z 20016G25KT 10SM BR SCT013 BKN019 OVC025 17/16 A2951 RMK AO2 RAE21 P0002 T01720156
Conditions at: KLAN (LANSING , MI, US) observed 1823 UTC 18 April 2019
Temperature: 17.2°C (63°F)
Dewpoint: 15.6°C (60°F) [RH = 90%]
Pressure (altimeter): 29.51 inches Hg (999.4 mb)
Winds: from the SSW (200 degrees) at 18 MPH (16 knots; 8.2 m/s)
gusting to 29 MPH (25 knots; 12.9 m/s)
Visibility: 10 or more miles (16+ km)
Ceiling: 1900 feet AGL
Clouds: scattered clouds at 1300 feet AGL
broken clouds at 1900 feet AGL
overcast cloud deck at 2500 feet AGL
Weather: BR  (mist)

METAR text: KLAN 181804Z 20013G19KT 5SM -RA BR BKN013 BKN019 OVC027 17/16 A2952 RMK AO2 P0002 T01670156
Conditions at: KLAN (LANSING , MI, US) observed 1804 UTC 18 April 2019
Temperature: 16.7°C (62°F)
Dewpoint: 15.6°C (60°F) [RH = 93%]
Pressure (altimeter): 29.52 inches Hg (999.7 mb)
Winds: from the SSW (200 degrees) at 15 MPH (13 knots; 6.7 m/s)
gusting to 22 MPH (19 knots; 9.8 m/s)
Visibility: 5 miles ( 8 km)
Ceiling: 1300 feet AGL
Clouds: broken clouds at 1300 feet AGL
broken clouds at 1900 feet AGL
overcast cloud deck at 2700 feet AGL
Weather: -RA BR  (light rain, mist)

METAR text: KLAN 181753Z 20013KT 4SM -RA BR OVC016 17/16 A2952 RMK AO2 SLP994 P0006 60043 T01670156 10189 20156 58009
Conditions at: KLAN (LANSING , MI, US) observed 1753 UTC 18 April 2019
Temperature: 16.7°C (62°F)
Dewpoint: 15.6°C (60°F) [RH = 93%]
Pressure (altimeter): 29.52 inches Hg (999.7 mb)
[Sea-level pressure:  999.4 mb]
Winds: from the SSW (200 degrees) at 15 MPH (13 knots; 6.7 m/s)
Visibility: 4 miles ( 6 km)
Ceiling: 1600 feet AGL
Clouds: overcast cloud deck at 1600 feet AGL
Weather: -RA BR  (light rain, mist)

METAR text: KLAN 181653Z 20013G22KT 3SM -RA BR SCT015 BKN023 OVC031 17/15 A2954 RMK AO2 PK WND 20032/1557 RAB13 SLP003 P0003 T01670150
Conditions at: KLAN (LANSING , MI, US) observed 1653 UTC 18 April 2019
Temperature: 16.7°C (62°F)
Dewpoint: 15.0°C (59°F) [RH = 90%]
Pressure (altimeter): 29.54 inches Hg (1000.4 mb)
[Sea-level pressure: 1000.3 mb]
Winds: from the SSW (200 degrees) at 15 MPH (13 knots; 6.7 m/s)
gusting to 25 MPH (22 knots; 11.3 m/s)
Visibility: 3 miles ( 5 km)
Ceiling: 2300 feet AGL
Clouds: scattered clouds at 1500 feet AGL
broken clouds at 2300 feet AGL
overcast cloud deck at 3100 feet AGL
Weather: -RA BR  (light rain, mist)

METAR text: KLAN 181639Z 20016G23KT 6SM -RA BR SCT021 BKN026 OVC070 17/15 A2955 RMK AO2 PK WND 20032/1557 RAB13 P0001 T01720150
Conditions at: KLAN (LANSING , MI, US) observed 1639 UTC 18 April 2019
Temperature: 17.2°C (63°F)
Dewpoint: 15.0°C (59°F) [RH = 87%]
Pressure (altimeter): 29.55 inches Hg (1000.8 mb)
Winds: from the SSW (200 degrees) at 18 MPH (16 knots; 8.2 m/s)
gusting to 26 MPH (23 knots; 11.8 m/s)
Visibility: 6 miles (10 km)
Ceiling: 2600 feet AGL
Clouds: scattered clouds at 2100 feet AGL
broken clouds at 2600 feet AGL
overcast cloud deck at 7000 feet AGL
Weather: -RA BR  (light rain, mist)

METAR text: KLAN 181604Z 20020G32KT 10SM FEW027 BKN032 OVC060 18/14 A2955 RMK AO2 PK WND 20032/1557 T01830139
Conditions at: KLAN (LANSING , MI, US) observed 1604 UTC 18 April 2019
Temperature: 18.3°C (65°F)
Dewpoint: 13.9°C (57°F) [RH = 76%]
Pressure (altimeter): 29.55 inches Hg (1000.8 mb)
Winds: from the SSW (200 degrees) at 23 MPH (20 knots; 10.3 m/s)
gusting to 37 MPH (32 knots; 16.5 m/s)
Visibility: 10 or more miles (16+ km)
Ceiling: 3200 feet AGL
Clouds: few clouds at 2700 feet AGL
broken clouds at 3200 feet AGL
overcast cloud deck at 6000 feet AGL
Weather: no significant weather observed at this time

METAR text: KLAN 181553Z 20022G29KT 10SM BKN029 OVC060 18/14 A2955 RMK AO2 PK WND 20029/1552 SLP006 T01830144
Conditions at: KLAN (LANSING , MI, US) observed 1553 UTC 18 April 2019
Temperature: 18.3°C (65°F)
Dewpoint: 14.4°C (58°F) [RH = 78%]
Pressure (altimeter): 29.55 inches Hg (1000.8 mb)
[Sea-level pressure: 1000.6 mb]
Winds: from the SSW (200 degrees) at 25 MPH (22 knots; 11.3 m/s)
gusting to 33 MPH (29 knots; 14.9 m/s)
Visibility: 10 or more miles (16+ km)
Ceiling: 2900 feet AGL
Clouds: broken clouds at 2900 feet AGL
overcast cloud deck at 6000 feet AGL
Weather: no significant weather observed at this time

METAR text: KLAN 181453Z 20013G20KT 10SM FEW017 BKN026 OVC039 17/15 A2954 RMK AO2 SLP003 60034 T01720150 56015
Conditions at: KLAN (LANSING , MI, US) observed 1453 UTC 18 April 2019
Temperature: 17.2°C (63°F)
Dewpoint: 15.0°C (59°F) [RH = 87%]
Pressure (altimeter): 29.54 inches Hg (1000.4 mb)
[Sea-level pressure: 1000.3 mb]
Winds: from the SSW (200 degrees) at 15 MPH (13 knots; 6.7 m/s)
gusting to 23 MPH (20 knots; 10.3 m/s)
Visibility: 10 or more miles (16+ km)
Ceiling: 2600 feet AGL
Clouds: few clouds at 1700 feet AGL
broken clouds at 2600 feet AGL
overcast cloud deck at 3900 feet AGL
Weather: no significant weather observed at this time

METAR text: KLAN 181449Z 20013G20KT 10SM FEW017 BKN026 OVC039 17/15 A2955 RMK AO2
Conditions at: KLAN (LANSING , MI, US) observed 1449 UTC 18 April 2019
Temperature: 17.0°C (63°F)
Dewpoint: 15.0°C (59°F) [RH = 88%]
Pressure (altimeter): 29.55 inches Hg (1000.8 mb)
Winds: from the SSW (200 degrees) at 15 MPH (13 knots; 6.7 m/s)
gusting to 23 MPH (20 knots; 10.3 m/s)
Visibility: 10 or more miles (16+ km)
Ceiling: 2600 feet AGL
Clouds: few clouds at 1700 feet AGL
broken clouds at 2600 feet AGL
overcast cloud deck at 3900 feet AGL
Weather: no significant weather observed at this time

METAR text: KLAN 181433Z 19013KT 10SM FEW015 BKN039 OVC095 17/15 A2954 RMK AO2 T01720150
Conditions at: KLAN (LANSING , MI, US) observed 1433 UTC 18 April 2019
Temperature: 17.2°C (63°F)
Dewpoint: 15.0°C (59°F) [RH = 87%]
Pressure (altimeter): 29.54 inches Hg (1000.4 mb)
Winds: from the S (190 degrees) at 15 MPH (13 knots; 6.7 m/s)
Visibility: 10 or more miles (16+ km)
Ceiling: 3900 feet AGL
Clouds: few clouds at 1500 feet AGL
broken clouds at 3900 feet AGL
overcast cloud deck at 9500 feet AGL
Weather: no significant weather observed at this time

METAR text: KLAN 181353Z 18009KT 9SM SCT014 BKN021 OVC095 17/16 A2954 RMK AO2 RAE26 TSE05 SLP002 P0027 T01670156
Conditions at: KLAN (LANSING , MI, US) observed 1353 UTC 18 April 2019
Temperature: 16.7°C (62°F)
Dewpoint: 15.6°C (60°F) [RH = 93%]
Pressure (altimeter): 29.54 inches Hg (1000.4 mb)
[Sea-level pressure: 1000.2 mb]
Winds: from the S (180 degrees) at 10 MPH (9 knots; 4.6 m/s)
Visibility: 9 miles (14 km)
Ceiling: 2100 feet AGL
Clouds: scattered clouds at 1400 feet AGL
broken clouds at 2100 feet AGL
overcast cloud deck at 9500 feet AGL
Weather: no significant weather observed at this time

METAR text: KLAN 181317Z 19008KT 3SM -RA BR FEW009 BKN015 OVC029 16/15 A2957 RMK AO2 LTG DSNT NE TSE05 P0027 T01560150
Conditions at: KLAN (LANSING , MI, US) observed 1317 UTC 18 April 2019
Temperature: 15.6°C (60°F)
Dewpoint: 15.0°C (59°F) [RH = 96%]
Pressure (altimeter): 29.57 inches Hg (1001.4 mb)
Winds: from the S (190 degrees) at 9 MPH (8 knots; 4.1 m/s)
Visibility: 3 miles ( 5 km)
Ceiling: 1500 feet AGL
Clouds: few clouds at 900 feet AGL
broken clouds at 1500 feet AGL
overcast cloud deck at 2900 feet AGL
Weather: -RA BR  (light rain, mist)

METAR text: KLAN 181313Z 20011KT 2SM R28L/5000VP6000FT RA BR SCT013 BKN029 OVC090 16/15 A2957 RMK AO2 LTG DSNT NE TSE05 P0026 T01560150
Conditions at: KLAN (LANSING , MI, US) observed 1313 UTC 18 April 2019
Temperature: 15.6°C (60°F)
Dewpoint: 15.0°C (59°F) [RH = 96%]
Pressure (altimeter): 29.57 inches Hg (1001.4 mb)
Winds: from the SSW (200 degrees) at 13 MPH (11 knots; 5.7 m/s)
Visibility: 2.00 miles (3.22 km)
Ceiling: 2900 feet AGL
Clouds: scattered clouds at 1300 feet AGL
broken clouds at 2900 feet AGL
overcast cloud deck at 9000 feet AGL
Weather: RA BR  (moderate rain, mist)

METAR text: KLAN 181308Z 21010G22KT 1SM R28L/4500VP6000FT VCTS RA BR SCT013 BKN029 OVC090 16/15 A2957 RMK AO2 TSE05 P0025 T01560150
Conditions at: KLAN (LANSING , MI, US) observed 1308 UTC 18 April 2019
Temperature: 15.6°C (60°F)
Dewpoint: 15.0°C (59°F) [RH = 96%]
Pressure (altimeter): 29.57 inches Hg (1001.4 mb)
Winds: from the SSW (210 degrees) at 12 MPH (10 knots; 5.1 m/s)
gusting to 25 MPH (22 knots; 11.3 m/s)
Visibility: 1.00 miles (1.61 km)
Ceiling: 2900 feet AGL
Clouds: scattered clouds at 1300 feet AGL
broken clouds at 2900 feet AGL
overcast cloud deck at 9000 feet AGL
Weather: VCTS RA BR  (thunderstorm in vicinity, moderate rain, mist)

METAR text: KLAN 181302Z 21013G19KT 3/4SM R28L/4500VP6000FT +TSRA BR FEW010 BKN023 OVC032 16/14 A2958 RMK AO2 P0011 T01560144
Conditions at: KLAN (LANSING , MI, US) observed 1302 UTC 18 April 2019
Temperature: 15.6°C (60°F)
Dewpoint: 14.4°C (58°F) [RH = 93%]
Pressure (altimeter): 29.58 inches Hg (1001.8 mb)
Winds: from the SSW (210 degrees) at 15 MPH (13 knots; 6.7 m/s)
gusting to 22 MPH (19 knots; 9.8 m/s)
Visibility: 0.75 miles (1.21 km)
Ceiling: 2300 feet AGL
Clouds: few clouds at 1000 feet AGL
broken clouds at 2300 feet AGL
overcast cloud deck at 3200 feet AGL
Weather: +TSRA BR  (heavy rain associated with thunderstorm(s), mist)

METAR text: KLAN 181253Z 19013KT 1 3/4SM R28L/6000VP6000FT TSRA BR FEW015 BKN021 OVC031 16/14 A2959 RMK AO2 LTG DSNT S RAB25 TSB50 SLP019 P0007 T01560144
Conditions at: KLAN (LANSING , MI, US) observed 1253 UTC 18 April 2019
Temperature: 15.6°C (60°F)
Dewpoint: 14.4°C (58°F) [RH = 93%]
Pressure (altimeter): 29.59 inches Hg (1002.1 mb)
[Sea-level pressure: 1001.9 mb]
Winds: from the S (190 degrees) at 15 MPH (13 knots; 6.7 m/s)
Visibility: 1.75 miles (2.82 km)
Ceiling: 2100 feet AGL
Clouds: few clouds at 1500 feet AGL
broken clouds at 2100 feet AGL
overcast cloud deck at 3100 feet AGL
Weather: TSRA BR  (rain associated with thunderstorm(s), mist)

METAR text: KLAN 181250Z 19011KT 2SM TSRA BR FEW017 BKN021 OVC031 16/14 A2958 RMK AO2 LTG DSNT S AND W RAB25 TSB50 P0006
Conditions at: KLAN (LANSING , MI, US) observed 1250 UTC 18 April 2019
Temperature: 16.0°C (61°F)
Dewpoint: 14.0°C (57°F) [RH = 88%]
Pressure (altimeter): 29.58 inches Hg (1001.8 mb)
Winds: from the S (190 degrees) at 13 MPH (11 knots; 5.7 m/s)
Visibility: 2.00 miles (3.22 km)
Ceiling: 2100 feet AGL
Clouds: few clouds at 1700 feet AGL
broken clouds at 2100 feet AGL
overcast cloud deck at 3100 feet AGL
Weather: TSRA BR  (rain associated with thunderstorm(s), mist)

METAR text: KLAN 181153Z 20012KT 10SM OVC022 16/13 A2958 RMK AO2 SLP017 70001 T01610133 10161 20133 53003
Conditions at: KLAN (LANSING , MI, US) observed 1153 UTC 18 April 2019
Temperature: 16.1°C (61°F)
Dewpoint: 13.3°C (56°F) [RH = 83%]
Pressure (altimeter): 29.58 inches Hg (1001.8 mb)
[Sea-level pressure: 1001.7 mb]
Winds: from the SSW (200 degrees) at 14 MPH (12 knots; 6.2 m/s)
Visibility: 10 or more miles (16+ km)
Ceiling: 2200 feet AGL
Clouds: overcast cloud deck at 2200 feet AGL
Weather: no significant weather observed at this time

METAR text: KLAN 181102Z 21011KT 10SM BKN028 OVC044 16/13 A2958 RMK AO2 T01610128
Conditions at: KLAN (LANSING , MI, US) observed 1102 UTC 18 April 2019
Temperature: 16.1°C (61°F)
Dewpoint: 12.8°C (55°F) [RH = 81%]
Pressure (altimeter): 29.58 inches Hg (1001.8 mb)
Winds: from the SSW (210 degrees) at 13 MPH (11 knots; 5.7 m/s)
Visibility: 10 or more miles (16+ km)
Ceiling: 2800 feet AGL
Clouds: broken clouds at 2800 feet AGL
overcast cloud deck at 4400 feet AGL
Weather: no significant weather observed at this time

METAR text: KLAN 181053Z 21013KT 10SM SCT028 OVC042 16/13 A2958 RMK AO2 SLP014 T01610128
Conditions at: KLAN (LANSING , MI, US) observed 1053 UTC 18 April 2019
Temperature: 16.1°C (61°F)
Dewpoint: 12.8°C (55°F) [RH = 81%]
Pressure (altimeter): 29.58 inches Hg (1001.8 mb)
[Sea-level pressure: 1001.4 mb]
Winds: from the SSW (210 degrees) at 15 MPH (13 knots; 6.7 m/s)
Visibility: 10 or more miles (16+ km)
Ceiling: 4200 feet AGL
Clouds: scattered clouds at 2800 feet AGL
overcast cloud deck at 4200 feet AGL
Weather: no significant weather observed at this time

METAR text: KLAN 180953Z 20011KT 10SM CLR 16/12 A2958 RMK AO2 SLP014 T01610122
Conditions at: KLAN (LANSING , MI, US) observed 0953 UTC 18 April 2019
Temperature: 16.1°C (61°F)
Dewpoint: 12.2°C (54°F) [RH = 78%]
Pressure (altimeter): 29.58 inches Hg (1001.8 mb)
[Sea-level pressure: 1001.4 mb]
Winds: from the SSW (200 degrees) at 13 MPH (11 knots; 5.7 m/s)
Visibility: 10 or more miles (16+ km)
Ceiling: at least 12,000 feet AGL
Clouds: sky clear below 12,000 feet AGL
Weather: no significant weather observed at this time

METAR text: KLAN 180853Z 19012KT 10SM FEW049 14/11 A2958 RMK AO2 SLP014 T01440111 56014
Conditions at: KLAN (LANSING , MI, US) observed 0853 UTC 18 April 2019
Temperature: 14.4°C (58°F)
Dewpoint: 11.1°C (52°F) [RH = 81%]
Pressure (altimeter): 29.58 inches Hg (1001.8 mb)
[Sea-level pressure: 1001.4 mb]
Winds: from the S (190 degrees) at 14 MPH (12 knots; 6.2 m/s)
Visibility: 10 or more miles (16+ km)
Ceiling: at least 12,000 feet AGL
Clouds: few clouds at 4900 feet AGL
Weather: no significant weather observed at this time

METAR text: KLAN 180753Z 20010KT 10SM CLR 14/10 A2959 RMK AO2 SLP019 T01390100
Conditions at: KLAN (LANSING , MI, US) observed 0753 UTC 18 April 2019
Temperature: 13.9°C (57°F)
Dewpoint: 10.0°C (50°F) [RH = 77%]
Pressure (altimeter): 29.59 inches Hg (1002.1 mb)
[Sea-level pressure: 1001.9 mb]
Winds: from the SSW (200 degrees) at 12 MPH (10 knots; 5.1 m/s)
Visibility: 10 or more miles (16+ km)
Ceiling: at least 12,000 feet AGL
Clouds: sky clear below 12,000 feet AGL
Weather: no significant weather observed at this time

METAR text: KLAN 180653Z 19012KT 10SM BKN070 14/10 A2959 RMK AO2 SLP017 T01440100
Conditions at: KLAN (LANSING , MI, US) observed 0653 UTC 18 April 2019
Temperature: 14.4°C (58°F)
Dewpoint: 10.0°C (50°F) [RH = 75%]
Pressure (altimeter): 29.59 inches Hg (1002.1 mb)
[Sea-level pressure: 1001.7 mb]
Winds: from the S (190 degrees) at 14 MPH (12 knots; 6.2 m/s)
Visibility: 10 or more miles (16+ km)
Ceiling: 7000 feet AGL
Clouds: broken clouds at 7000 feet AGL
Weather: no significant weather observed at this time

METAR text: KLAN 180553Z 18012G20KT 10SM SCT080 13/10 A2962 RMK AO2 SLP029 60001 T01330100 10139 20122 56027
Conditions at: KLAN (LANSING , MI, US) observed 0553 UTC 18 April 2019
Temperature: 13.3°C (56°F)
Dewpoint: 10.0°C (50°F) [RH = 80%]
Pressure (altimeter): 29.62 inches Hg (1003.1 mb)
[Sea-level pressure: 1002.9 mb]
Winds: from the S (180 degrees) at 14 MPH (12 knots; 6.2 m/s)
gusting to 23 MPH (20 knots; 10.3 m/s)
Visibility: 10 or more miles (16+ km)
Ceiling: at least 12,000 feet AGL
Clouds: scattered clouds at 8000 feet AGL
Weather: no significant weather observed at this time

METAR text: KLAN 180453Z 17015KT 10SM CLR 13/09 A2964 RMK AO2 SLP036 T01330094 401610056
Conditions at: KLAN (LANSING , MI, US) observed 0453 UTC 18 April 2019
Temperature: 13.3°C (56°F)
Dewpoint: 9.4°C (49°F) [RH = 77%]
Pressure (altimeter): 29.64 inches Hg (1003.8 mb)
[Sea-level pressure: 1003.6 mb]
Winds: from the S (170 degrees) at 17 MPH (15 knots; 7.7 m/s)
Visibility: 10 or more miles (16+ km)
Ceiling: at least 12,000 feet AGL
Clouds: sky clear below 12,000 feet AGL
Weather: no significant weather observed at this time

METAR text: KLAN 180353Z 17016G22KT 10SM BKN090 13/09 A2966 RMK AO2 SLP046 T01330094
Conditions at: KLAN (LANSING , MI, US) observed 0353 UTC 18 April 2019
Temperature: 13.3°C (56°F)
Dewpoint: 9.4°C (49°F) [RH = 77%]
Pressure (altimeter): 29.66 inches Hg (1004.5 mb)
[Sea-level pressure: 1004.6 mb]
Winds: from the S (170 degrees) at 18 MPH (16 knots; 8.2 m/s)
gusting to 25 MPH (22 knots; 11.3 m/s)
Visibility: 10 or more miles (16+ km)
Ceiling: 9000 feet AGL
Clouds: broken clouds at 9000 feet AGL
Weather: no significant weather observed at this time

METAR text: KLAN 180253Z 15016G23KT 10SM BKN080 13/09 A2970 RMK AO2 SLP059 60001 T01280094 56023
Conditions at: KLAN (LANSING , MI, US) observed 0253 UTC 18 April 2019
Temperature: 12.8°C (55°F)
Dewpoint: 9.4°C (49°F) [RH = 80%]
Pressure (altimeter): 29.70 inches Hg (1005.8 mb)
[Sea-level pressure: 1005.9 mb]
Winds: from the SSE (150 degrees) at 18 MPH (16 knots; 8.2 m/s)
gusting to 26 MPH (23 knots; 11.8 m/s)
Visibility: 10 or more miles (16+ km)
Ceiling: 8000 feet AGL
Clouds: broken clouds at 8000 feet AGL
Weather: no significant weather observed at this time

METAR text: KLAN 180153Z 16019G24KT 10SM OVC085 12/09 A2973 RMK AO2 SLP071 T01220094
Conditions at: KLAN (LANSING , MI, US) observed 0153 UTC 18 April 2019
Temperature: 12.2°C (54°F)
Dewpoint: 9.4°C (49°F) [RH = 83%]
Pressure (altimeter): 29.73 inches Hg (1006.9 mb)
[Sea-level pressure: 1007.1 mb]
Winds: from the SSE (160 degrees) at 22 MPH (19 knots; 9.8 m/s)
gusting to 28 MPH (24 knots; 12.3 m/s)
Visibility: 10 or more miles (16+ km)
Ceiling: 8500 feet AGL
Clouds: overcast cloud deck at 8500 feet AGL
Weather: no significant weather observed at this time

METAR text: KLAN 180053Z 15015G23KT 10SM BKN100 OVC110 12/09 A2973 RMK AO2 PK WND 15026/0017 RAE15 SLP069 P0001 T01220094
Conditions at: KLAN (LANSING , MI, US) observed 0053 UTC 18 April 2019
Temperature: 12.2°C (54°F)
Dewpoint: 9.4°C (49°F) [RH = 83%]
Pressure (altimeter): 29.73 inches Hg (1006.9 mb)
[Sea-level pressure: 1006.9 mb]
Winds: from the SSE (150 degrees) at 17 MPH (15 knots; 7.7 m/s)
gusting to 26 MPH (23 knots; 11.8 m/s)
Visibility: 10 or more miles (16+ km)
Ceiling: 10000 feet AGL
Clouds: broken clouds at 10000 feet AGL
overcast cloud deck at 11000 feet AGL
Weather: no significant weather observed at this time

METAR text: KLAN 180018Z 15018G26KT 10SM FEW060 OVC100 13/09 A2973 RMK AO2 PK WND 15026/0017 RAE15 P0001 T01280094
Conditions at: KLAN (LANSING , MI, US) observed 0018 UTC 18 April 2019
Temperature: 12.8°C (55°F)
Dewpoint: 9.4°C (49°F) [RH = 80%]
Pressure (altimeter): 29.73 inches Hg (1006.9 mb)
Winds: from the SSE (150 degrees) at 21 MPH (18 knots; 9.3 m/s)
gusting to 30 MPH (26 knots; 13.4 m/s)
Visibility: 10 or more miles (16+ km)
Ceiling: 10000 feet AGL
Clouds: few clouds at 6000 feet AGL
overcast cloud deck at 10000 feet AGL
Weather: no significant weather observed at this time

METAR text: KLAN 180003Z 14010KT 7SM VCTS -RA OVC110 13/09 A2975 RMK AO2 LTG DSNT S P0000 T01280094
Conditions at: KLAN (LANSING , MI, US) observed 0003 UTC 18 April 2019
Temperature: 12.8°C (55°F)
Dewpoint: 9.4°C (49°F) [RH = 80%]
Pressure (altimeter): 29.75 inches Hg (1007.5 mb)
Winds: from the SE (140 degrees) at 12 MPH (10 knots; 5.1 m/s)
Visibility: 7 miles (11 km)
Ceiling: 11000 feet AGL
Clouds: overcast cloud deck at 11000 feet AGL
Weather: VCTS -RA  (thunderstorm in vicinity, light rain)

METAR text: KLAN 172353Z 15009KT 9SM -RA FEW060 FEW070 OVC100 13/09 A2977 RMK AO2 LTG DSNT SW AND W RAB12 SLP083 P0000 60000 T01330094 10161 20133 56025
Conditions at: KLAN (LANSING , MI, US) observed 2353 UTC 17 April 2019
Temperature: 13.3°C (56°F)
Dewpoint: 9.4°C (49°F) [RH = 77%]
Pressure (altimeter): 29.77 inches Hg (1008.2 mb)
[Sea-level pressure: 1008.3 mb]
Winds: from the SSE (150 degrees) at 10 MPH (9 knots; 4.6 m/s)
Visibility: 9 miles (14 km)
Ceiling: 10000 feet AGL
Clouds: few clouds at 6000 feet AGL
few clouds at 7000 feet AGL
overcast cloud deck at 10000 feet AGL
Weather: -RA  (light rain)

METAR text: KLAN 172253Z 15013KT 10SM OVC100 15/09 A2978 RMK AO2 LTG DSNT S AND SW SLP087 T01500089
Conditions at: KLAN (LANSING , MI, US) observed 2253 UTC 17 April 2019
Temperature: 15.0°C (59°F)
Dewpoint: 8.9°C (48°F) [RH = 67%]
Pressure (altimeter): 29.78 inches Hg (1008.5 mb)
[Sea-level pressure: 1008.7 mb]
Winds: from the SSE (150 degrees) at 15 MPH (13 knots; 6.7 m/s)
Visibility: 10 or more miles (16+ km)
Ceiling: 10000 feet AGL
Clouds: overcast cloud deck at 10000 feet AGL
Weather: no significant weather observed at this time

METAR text: KLAN 172153Z 13014KT 10SM FEW085 16/09 A2981 RMK AO2 SLP098 T01610089
Conditions at: KLAN (LANSING , MI, US) observed 2153 UTC 17 April 2019
Temperature: 16.1°C (61°F)
Dewpoint: 8.9°C (48°F) [RH = 62%]
Pressure (altimeter): 29.81 inches Hg (1009.6 mb)
[Sea-level pressure: 1009.8 mb]
Winds: from the SE (130 degrees) at 16 MPH (14 knots; 7.2 m/s)
Visibility: 10 or more miles (16+ km)
Ceiling: at least 12,000 feet AGL
Clouds: few clouds at 8500 feet AGL
Weather: no significant weather observed at this time

Forecast for: KLAN (LANSING , MI, US)
Text: KLAN 190742Z 1908/2006 33014KT P6SM OVC012
Forecast period: 0800 to 1200 UTC 19 April 2019
Forecast type: FROM: standard forecast or significant change
Winds: from the NNW (330 degrees) at 16 MPH (14 knots; 7.2 m/s)
Visibility: 6 or more miles 10+ km)
Ceiling: 1200 feet AGL
Clouds: overcast cloud deck at 1200 feet AGL
Weather: no significant weather forecast for this period
Text: FM191200 36012G20KT 2SM -RA BR OVC008
Forecast period: 1200 to 1700 UTC 19 April 2019
Forecast type: FROM: standard forecast or significant change
Winds: from the N (360 degrees) at 14 MPH (12 knots; 6.2 m/s)
gusting to 23 MPH (20 knots; 10.3 m/s)
Visibility: 2.00 miles (3.22 km)
Ceiling: 800 feet AGL
Clouds: overcast cloud deck at 800 feet AGL
Weather: -RA BR  (light rain, mist)
Text: FM191700 02014G23KT 6SM -SHRA BR OVC010
Forecast period: 1700 to 2200 UTC 19 April 2019
Forecast type: FROM: standard forecast or significant change
Winds: from the NNE (20 degrees) at 16 MPH (14 knots; 7.2 m/s)
gusting to 26 MPH (23 knots; 11.8 m/s)
Visibility: 6 miles (10 km)
Ceiling: 1000 feet AGL
Clouds: overcast cloud deck at 1000 feet AGL
Weather: -SHRA BR  (light rain showers, mist)
Text: FM192200 03017G28KT P6SM VCSH OVC020
Forecast period: 2200 UTC 19 April 2019 to 0100 UTC 20 April 2019
Forecast type: FROM: standard forecast or significant change
Winds: from the NNE (30 degrees) at 20 MPH (17 knots; 8.7 m/s)
gusting to 32 MPH (28 knots; 14.4 m/s)
Visibility: 6 or more miles 10+ km)
Ceiling: 2000 feet AGL
Clouds: overcast cloud deck at 2000 feet AGL
Weather: VCSH  (showers in vicinity)
Text: FM200100 01013KT P6SM VCSH BKN040
Forecast period: 0100 to 0600 UTC 20 April 2019
Forecast type: FROM: standard forecast or significant change
Winds: from the N (10 degrees) at 15 MPH (13 knots; 6.7 m/s)
Visibility: 6 or more miles 10+ km)
Ceiling: 4000 feet AGL
Clouds: broken clouds at 4000 feet AGL
Weather: VCSH  (showers in vicinity)